createdAt,value
2023-04-28T00:02:12.464Z,8.70
2023-04-28T00:07:15.158Z,7.90
2023-04-28T00:12:17.746Z,7.80
2023-04-28T00:17:20.348Z,2.20
2023-04-28T00:22:23.130Z,4.00
2023-04-28T00:27:25.996Z,6.30
2023-04-28T00:32:29.421Z,10.80
2023-04-28T00:37:37.498Z,5.00
2023-04-28T00:42:40.383Z,7.10
2023-04-28T00:47:43.383Z,17.80
2023-04-28T00:52:47.818Z,12.40
2023-04-28T00:57:51.884Z,10.80
2023-04-28T01:02:57.049Z,8.00
2023-04-28T01:07:59.787Z,3.40
2023-04-28T01:13:02.341Z,11.60
2023-04-28T01:18:05.011Z,15.00
2023-04-28T01:23:16.125Z,5.80
2023-04-28T01:28:18.700Z,2.90
2023-04-28T01:33:21.238Z,3.00
2023-04-28T01:38:23.920Z,1.70
2023-04-28T01:43:26.777Z,6.70
2023-04-28T01:48:29.365Z,6.40
2023-04-28T01:53:31.977Z,6.70
2023-04-28T01:58:34.667Z,4.30
2023-04-28T02:03:37.399Z,4.30
2023-04-28T02:08:40.138Z,3.10
2023-04-28T02:13:42.797Z,4.90
2023-04-28T02:18:45.476Z,5.30
2023-04-28T02:23:48.467Z,7.40
2023-04-28T02:28:51.392Z,10.70
2023-04-28T02:33:54.492Z,7.30
2023-04-28T02:38:57.106Z,6.40
2023-04-28T02:43:59.680Z,4.00
2023-04-28T02:49:02.296Z,5.20
2023-04-28T02:54:05.586Z,3.60
2023-04-28T02:59:08.252Z,4.70
2023-04-28T03:04:11.060Z,4.70
2023-04-28T03:09:14.395Z,3.90
2023-04-28T03:14:17.176Z,7.70
2023-04-28T03:19:19.964Z,5.10
2023-04-28T03:24:22.561Z,3.70
2023-04-28T03:29:25.731Z,4.90
2023-04-28T03:34:28.259Z,6.10
2023-04-28T03:39:31.062Z,6.50
2023-04-28T03:44:33.640Z,5.20
2023-04-28T03:49:36.235Z,3.80
2023-04-28T03:54:38.916Z,6.80
2023-04-28T03:59:41.624Z,8.30
2023-04-28T04:04:45.408Z,18.60
2023-04-28T04:09:48.237Z,8.50
2023-04-28T04:14:51.041Z,7.10
2023-04-28T04:19:53.623Z,6.70
2023-04-28T04:24:56.193Z,8.80
2023-04-28T04:29:58.752Z,7.00
2023-04-28T04:35:01.718Z,5.10
2023-04-28T04:40:05.432Z,5.00
2023-04-28T04:45:09.417Z,4.00
2023-04-28T04:50:12.576Z,4.10
2023-04-28T04:55:15.466Z,3.40
2023-04-28T05:00:19.250Z,3.90
2023-04-28T05:05:23.016Z,4.30
2023-04-28T05:10:26.049Z,4.10
2023-04-28T05:15:29.300Z,4.20
2023-04-28T05:20:31.983Z,4.40
2023-04-28T05:25:34.812Z,4.50
2023-04-28T05:30:37.669Z,4.60
2023-04-28T05:35:40.313Z,5.00
2023-04-28T05:40:42.972Z,4.30
2023-04-28T05:45:45.840Z,5.60
2023-04-28T05:50:48.480Z,5.80
2023-04-28T05:55:52.003Z,4.60
2023-04-28T06:00:54.966Z,4.50
2023-04-28T06:05:57.778Z,4.20
2023-04-28T06:11:00.560Z,3.90
2023-04-28T06:16:03.897Z,4.00
2023-04-28T06:21:06.544Z,4.60
2023-04-28T06:26:09.702Z,7.10
2023-04-28T06:31:12.481Z,6.60
2023-04-28T06:36:17.733Z,4.90
2023-04-28T06:41:20.480Z,5.40
2023-04-28T06:46:23.485Z,3.90
2023-04-28T06:51:26.841Z,4.00
2023-04-28T06:56:29.727Z,5.30
2023-04-28T07:01:32.306Z,3.70
2023-04-28T07:06:34.884Z,3.40
2023-04-28T07:11:37.445Z,3.50
2023-04-28T07:16:40.159Z,4.70
2023-04-28T07:21:43.335Z,3.80
2023-04-28T07:26:46.240Z,3.80
2023-04-28T07:31:49.409Z,3.90
2023-04-28T07:36:51.972Z,3.30
2023-04-28T07:41:55.112Z,2.70
2023-04-28T07:47:00.164Z,1.70
2023-04-28T07:52:03.041Z,2.20
2023-04-28T07:57:06.289Z,1.70
2023-04-28T08:02:09.007Z,2.90
2023-04-28T08:07:12.592Z,3.40
2023-04-28T08:12:15.718Z,2.70
2023-04-28T08:17:18.663Z,2.40
2023-04-28T08:22:21.572Z,2.90
2023-04-28T08:27:26.032Z,2.80
2023-04-28T08:32:28.879Z,2.50
2023-04-28T08:37:31.609Z,2.10
2023-04-28T08:42:35.843Z,2.10
2023-04-28T08:47:41.354Z,2.40
2023-04-28T08:52:44.088Z,2.90
2023-04-28T08:57:51.601Z,2.40
2023-04-28T09:02:54.310Z,1.70
2023-04-28T09:07:57.077Z,2.00
2023-04-28T09:12:59.850Z,2.50
2023-04-28T09:18:08.160Z,1.80
2023-04-28T09:23:19.962Z,1.50
2023-04-28T09:28:23.576Z,1.80
2023-04-28T09:33:26.958Z,2.10
2023-04-28T09:38:29.650Z,1.80
2023-04-28T09:43:35.308Z,1.90
2023-04-28T09:48:38.331Z,2.00
2023-04-28T09:53:41.031Z,1.70
2023-04-28T09:58:46.873Z,1.60
2023-04-28T10:03:50.751Z,1.30
2023-04-28T10:08:53.507Z,1.80
2023-04-28T10:13:56.548Z,2.40
2023-04-28T10:19:02.048Z,1.80
2023-04-28T10:24:21.897Z,2.50
2023-04-28T10:29:27.965Z,1.90
2023-04-28T10:34:31.460Z,1.50
2023-04-28T10:39:35.151Z,1.70
2023-04-28T10:44:37.839Z,1.20
2023-04-28T10:49:58.888Z,1.70
2023-04-28T10:55:32.708Z,1.20
2023-04-28T11:00:35.555Z,1.70
2023-04-28T11:05:38.727Z,3.50
2023-04-28T11:11:14.989Z,1.20
2023-04-28T11:16:21.346Z,1.40
2023-04-28T11:21:28.180Z,1.70
2023-04-28T11:26:30.837Z,1.80
2023-04-28T11:31:33.501Z,2.10
2023-04-28T11:36:38.993Z,1.60
2023-04-28T11:41:46.213Z,1.40
2023-04-28T11:46:56.142Z,1.50
2023-04-28T11:52:05.952Z,2.00
2023-04-28T11:57:18.943Z,2.20
2023-04-28T12:02:30.296Z,1.60
2023-04-28T12:07:43.491Z,1.50
2023-04-28T12:17:53.395Z,1.80
2023-04-28T12:22:57.015Z,2.00
2023-04-28T12:28:02.526Z,2.40
2023-04-28T12:33:05.410Z,2.10
2023-04-28T12:38:11.777Z,1.60
2023-04-28T12:43:14.963Z,1.80
2023-04-28T12:48:17.654Z,1.70
2023-04-28T12:53:20.408Z,2.60
2023-04-28T12:58:23.010Z,2.10
2023-04-28T13:03:26.119Z,1.80
2023-04-28T13:08:31.015Z,1.70
2023-04-28T13:13:33.569Z,1.70
2023-04-28T13:18:36.220Z,1.50
2023-04-28T13:23:38.770Z,1.70
2023-04-28T13:28:42.521Z,1.80
2023-04-28T13:33:45.813Z,1.70
2023-04-28T13:38:49.291Z,1.70
2023-04-28T13:43:52.131Z,2.10
2023-04-28T13:48:55.030Z,1.90
2023-04-28T13:53:57.571Z,1.60
2023-04-28T13:59:00.349Z,2.10
2023-04-28T14:04:03.340Z,1.70
2023-04-28T14:09:06.526Z,2.20
2023-04-28T14:14:09.084Z,1.50
2023-04-28T14:19:12.978Z,2.40
2023-04-28T14:24:15.612Z,2.50
2023-04-28T14:29:18.163Z,2.50
2023-04-28T14:34:20.758Z,2.20
2023-04-28T14:39:23.391Z,2.00
2023-04-28T14:44:26.150Z,2.10
2023-04-28T14:49:28.965Z,2.20
2023-04-28T14:54:32.333Z,2.20
2023-04-28T14:59:36.133Z,1.80
2023-04-28T15:04:40.051Z,1.70
2023-04-28T15:09:43.795Z,2.80
2023-04-28T15:14:46.532Z,1.70
2023-04-28T15:19:49.493Z,2.10
2023-04-28T15:24:52.689Z,1.90
2023-04-28T15:29:55.667Z,1.90
2023-04-28T15:34:58.252Z,1.60
2023-04-28T15:40:00.824Z,2.40
2023-04-28T15:45:04.364Z,2.10
2023-04-28T15:50:10.539Z,2.00
2023-04-28T15:55:15.144Z,1.30
2023-04-28T16:00:18.296Z,2.10
2023-04-28T16:05:21.002Z,2.40
2023-04-28T16:10:23.714Z,2.30
2023-04-28T16:15:26.882Z,2.10
2023-04-28T16:20:30.011Z,1.80
2023-04-28T16:25:32.657Z,2.10
2023-04-28T16:30:35.939Z,2.60
2023-04-28T16:35:38.572Z,2.10
2023-04-28T16:40:41.302Z,2.30
2023-04-28T16:45:44.085Z,4.60
2023-04-28T16:50:46.684Z,3.30
2023-04-28T16:55:49.248Z,3.00
2023-04-28T17:00:52.393Z,2.30
2023-04-28T17:05:55.280Z,3.30
2023-04-28T17:11:00.240Z,4.10
2023-04-28T17:16:03.083Z,3.00
2023-04-28T17:21:06.228Z,6.20
2023-04-28T17:26:08.786Z,6.70
2023-04-28T17:31:11.535Z,7.70
2023-04-28T17:36:14.182Z,4.20
2023-04-28T17:41:17.224Z,3.20
2023-04-28T17:46:21.103Z,7.20
2023-04-28T17:51:23.721Z,4.60
2023-04-28T17:56:27.046Z,3.80
2023-04-28T18:01:29.871Z,4.70
2023-04-28T18:06:32.532Z,6.20
2023-04-28T18:11:35.140Z,6.90
2023-04-28T18:16:37.846Z,8.20
2023-04-28T18:21:40.565Z,8.20
2023-04-28T18:26:43.218Z,6.30
2023-04-28T18:31:46.329Z,6.90
2023-04-28T18:36:49.915Z,19.30
2023-04-28T18:41:52.632Z,10.70
2023-04-28T18:46:55.519Z,22.00
2023-04-28T18:52:02.575Z,20.20
2023-04-28T18:57:05.280Z,15.50
2023-04-28T19:02:08.979Z,7.80
2023-04-28T19:07:11.922Z,6.90
2023-04-28T19:12:14.464Z,7.50
2023-04-28T19:17:17.889Z,17.30
2023-04-28T19:22:41.470Z,9.50
2023-04-28T19:27:45.059Z,9.10
2023-04-28T19:32:47.705Z,10.50
2023-04-28T19:37:50.658Z,9.60
2023-04-28T19:42:55.463Z,20.60
2023-04-28T19:47:58.609Z,17.90
2023-04-28T19:53:01.344Z,6.90
2023-04-28T19:58:05.931Z,5.30
2023-04-28T20:03:09.073Z,5.50
2023-04-28T20:08:12.727Z,4.30
2023-04-28T20:13:15.392Z,3.40
2023-04-28T20:18:18.014Z,4.30
2023-04-28T20:23:20.787Z,4.40
2023-04-28T20:28:23.482Z,4.10
2023-04-28T20:33:26.068Z,5.10
2023-04-28T20:38:29.738Z,5.20
2023-04-28T20:43:32.553Z,8.20
2023-04-28T20:48:35.314Z,24.80
2023-04-28T20:53:39.658Z,17.60
2023-04-28T20:58:42.495Z,12.50
2023-04-28T21:03:45.309Z,8.10
2023-04-28T21:08:48.096Z,9.50
2023-04-28T21:13:50.802Z,9.40
2023-04-28T21:18:54.513Z,5.90
2023-04-28T21:23:57.050Z,7.10
2023-04-28T21:28:59.911Z,9.20
2023-04-28T21:34:02.584Z,6.90
2023-04-28T21:39:06.289Z,6.90
2023-04-28T21:44:08.886Z,11.50
2023-04-28T21:49:11.567Z,6.20
2023-04-28T21:54:14.594Z,17.00
2023-04-28T21:59:17.934Z,5.70
2023-04-28T22:04:21.253Z,4.80
2023-04-28T22:09:24.143Z,4.90
2023-04-28T22:14:40.320Z,4.60
2023-04-28T22:19:43.857Z,4.70
2023-04-28T22:24:46.497Z,4.70
2023-04-28T22:29:49.209Z,4.90
2023-04-28T22:34:51.924Z,6.20
2023-04-28T22:39:54.459Z,6.20
2023-04-28T22:44:57.054Z,5.70
2023-04-28T22:49:59.773Z,5.20
2023-04-28T22:55:03.211Z,14.60
2023-04-28T23:00:07.679Z,5.60
2023-04-28T23:05:11.081Z,8.10
2023-04-28T23:10:14.732Z,8.00
2023-04-28T23:15:17.530Z,5.70
2023-04-28T23:20:20.366Z,6.80
2023-04-28T23:25:23.333Z,6.00
2023-04-28T23:30:25.878Z,5.80
2023-04-28T23:35:28.421Z,5.40
2023-04-28T23:40:31.040Z,5.20
2023-04-28T23:45:33.673Z,4.70
2023-04-28T23:50:36.307Z,4.80
2023-04-28T23:55:38.839Z,4.30
